createdAt,value
2018-03-29T00:00:29.400Z,945.21
2018-03-29T00:01:29.484Z,945.22
2018-03-29T00:02:29.388Z,945.25
2018-03-29T00:03:29.382Z,945.32
2018-03-29T00:04:29.382Z,945.27
2018-03-29T00:05:29.384Z,945.32
2018-03-29T00:06:29.375Z,945.40
2018-03-29T00:07:29.372Z,945.38
2018-03-29T00:08:29.367Z,945.35
2018-03-29T00:09:29.368Z,945.42
2018-03-29T00:10:29.362Z,945.47
2018-03-29T00:11:29.355Z,945.52
2018-03-29T00:12:29.350Z,945.50
2018-03-29T00:13:29.346Z,945.53
2018-03-29T00:14:29.368Z,945.48
2018-03-29T00:15:29.345Z,945.57
2018-03-29T00:16:29.336Z,945.49
2018-03-29T00:17:29.332Z,945.56
2018-03-29T00:18:29.357Z,945.60
2018-03-29T00:19:29.325Z,945.51
2018-03-29T00:20:29.317Z,945.62
2018-03-29T00:21:29.313Z,945.54
2018-03-29T00:22:29.309Z,945.63
2018-03-29T00:23:29.305Z,945.66
2018-03-29T00:24:29.303Z,945.68
2018-03-29T00:25:29.298Z,945.69
2018-03-29T00:26:29.292Z,945.70
2018-03-29T00:27:29.348Z,945.80
2018-03-29T00:28:29.285Z,945.77
2018-03-29T00:29:29.279Z,945.83
2018-03-29T00:30:29.277Z,945.86
2018-03-29T00:31:29.272Z,945.90
2018-03-29T00:32:29.277Z,945.89
2018-03-29T00:33:29.263Z,945.93
2018-03-29T00:34:29.263Z,946.02
2018-03-29T00:35:29.256Z,945.98
2018-03-29T00:36:29.250Z,945.98
2018-03-29T00:37:29.249Z,946.04
2018-03-29T00:38:29.244Z,946.05
2018-03-29T00:39:29.245Z,945.97
2018-03-29T00:40:29.237Z,946.20
2018-03-29T00:41:29.229Z,946.06
2018-03-29T00:42:29.225Z,946.01
2018-03-29T00:43:29.223Z,946.14
2018-03-29T00:44:29.218Z,946.20
2018-03-29T00:45:29.214Z,946.14
2018-03-29T00:46:29.214Z,946.14
2018-03-29T00:47:29.208Z,946.24
2018-03-29T00:48:29.204Z,946.27
2018-03-29T00:49:29.200Z,946.23
2018-03-29T00:50:29.191Z,946.29
2018-03-29T00:51:29.188Z,946.26
2018-03-29T00:52:29.186Z,946.30
2018-03-29T00:53:29.177Z,946.31
2018-03-29T00:54:29.174Z,946.45
2018-03-29T00:55:29.169Z,946.50
2018-03-29T00:56:29.172Z,946.52
2018-03-29T00:57:29.159Z,946.47
2018-03-29T00:58:29.158Z,946.45
2018-03-29T00:59:29.158Z,946.51
2018-03-29T01:00:29.148Z,946.55
2018-03-29T01:01:29.141Z,946.59
2018-03-29T01:02:29.146Z,946.54
2018-03-29T01:03:29.138Z,946.57
2018-03-29T01:04:29.129Z,946.60
2018-03-29T01:05:29.132Z,946.63
2018-03-29T01:06:29.125Z,946.74
2018-03-29T01:07:29.120Z,946.71
2018-03-29T01:08:29.120Z,946.72
2018-03-29T01:09:29.117Z,946.70
2018-03-29T01:10:29.103Z,946.76
2018-03-29T01:11:29.102Z,946.75
2018-03-29T01:12:29.094Z,946.77
2018-03-29T01:13:29.092Z,946.77
2018-03-29T01:14:29.085Z,946.80
2018-03-29T01:15:29.082Z,946.80
2018-03-29T01:16:29.078Z,946.84
2018-03-29T01:17:29.073Z,946.88
2018-03-29T01:18:29.067Z,946.93
2018-03-29T01:19:29.062Z,946.88
2018-03-29T01:20:29.061Z,946.86
2018-03-29T01:21:29.064Z,946.94
2018-03-29T01:22:29.054Z,946.91
2018-03-29T01:23:29.049Z,946.89
2018-03-29T01:24:29.042Z,946.88
2018-03-29T01:25:29.038Z,946.88
2018-03-29T01:26:29.032Z,946.84
2018-03-29T01:27:29.029Z,946.85
2018-03-29T01:28:29.028Z,946.93
2018-03-29T01:29:29.017Z,946.89
2018-03-29T01:30:29.013Z,947.00
2018-03-29T01:31:29.027Z,946.94
2018-03-29T01:32:29.007Z,947.06
2018-03-29T01:33:29.000Z,947.09
2018-03-29T01:34:28.993Z,947.06
2018-03-29T01:35:28.993Z,947.07
2018-03-29T01:36:28.995Z,947.06
2018-03-29T01:37:28.986Z,947.12
2018-03-29T01:38:28.977Z,947.09
2018-03-29T01:39:28.972Z,947.07
2018-03-29T01:40:28.970Z,947.10
2018-03-29T01:41:28.967Z,947.11
2018-03-29T01:42:28.964Z,947.19
2018-03-29T01:43:28.956Z,947.20
2018-03-29T01:44:28.952Z,947.21
2018-03-29T01:45:28.946Z,947.23
2018-03-29T01:46:28.942Z,947.26
2018-03-29T01:47:28.938Z,947.27
2018-03-29T01:48:28.931Z,947.26
2018-03-29T01:49:28.929Z,947.29
2018-03-29T01:50:28.928Z,947.33
2018-03-29T01:51:28.922Z,947.35
2018-03-29T01:52:28.913Z,947.41
2018-03-29T01:53:28.914Z,947.37
2018-03-29T01:54:28.904Z,947.41
2018-03-29T01:55:28.908Z,947.40
2018-03-29T01:56:28.894Z,947.37
2018-03-29T01:57:28.889Z,947.34
2018-03-29T01:58:28.887Z,947.42
2018-03-29T01:59:28.879Z,947.45
2018-03-29T02:00:28.878Z,947.42
2018-03-29T02:01:28.894Z,947.41
2018-03-29T02:02:28.883Z,947.49
2018-03-29T02:03:28.864Z,947.46
2018-03-29T02:04:28.880Z,947.52
2018-03-29T02:05:28.853Z,947.52
2018-03-29T02:06:28.858Z,947.54
2018-03-29T02:07:28.842Z,947.61
2018-03-29T02:08:28.840Z,947.58
2018-03-29T02:09:28.834Z,947.65
2018-03-29T02:10:28.830Z,947.66
2018-03-29T02:11:28.824Z,947.66
2018-03-29T02:12:28.818Z,947.68
2018-03-29T02:13:28.822Z,947.71
2018-03-29T02:14:28.808Z,947.70
2018-03-29T02:15:28.805Z,947.78
2018-03-29T02:16:28.799Z,947.71
2018-03-29T02:17:28.796Z,947.66
2018-03-29T02:18:28.789Z,947.66
2018-03-29T02:19:28.786Z,947.71
2018-03-29T02:20:28.796Z,947.80
2018-03-29T02:21:28.774Z,947.76
2018-03-29T02:22:28.768Z,947.78
2018-03-29T02:23:28.764Z,947.78
2018-03-29T02:24:28.759Z,947.77
2018-03-29T02:25:28.761Z,947.78
2018-03-29T02:26:28.754Z,947.75
2018-03-29T02:27:28.745Z,947.84
2018-03-29T02:28:28.739Z,947.80
2018-03-29T02:29:28.736Z,947.89
2018-03-29T02:30:28.730Z,947.92
2018-03-29T02:31:28.723Z,947.96
2018-03-29T02:32:28.722Z,947.91
2018-03-29T02:33:28.715Z,947.97
2018-03-29T02:34:28.707Z,948.02
2018-03-29T02:35:28.702Z,948.02
2018-03-29T02:36:28.698Z,948.01
2018-03-29T02:37:28.693Z,947.99
2018-03-29T02:38:28.690Z,948.16
2018-03-29T02:39:28.682Z,948.07
2018-03-29T02:40:28.680Z,948.07
2018-03-29T02:41:28.674Z,948.07
2018-03-29T02:42:28.673Z,948.14
2018-03-29T02:43:28.662Z,948.13
2018-03-29T02:44:28.678Z,948.14
2018-03-29T02:45:28.651Z,948.19
2018-03-29T02:46:28.647Z,948.17
2018-03-29T02:47:28.642Z,948.21
2018-03-29T02:48:28.642Z,948.27
2018-03-29T02:49:28.638Z,948.27
2018-03-29T02:50:28.625Z,948.27
2018-03-29T02:51:28.623Z,948.23
2018-03-29T02:52:28.617Z,948.23
2018-03-29T02:53:28.641Z,948.29
2018-03-29T02:54:28.607Z,948.30
2018-03-29T02:55:28.609Z,948.27
2018-03-29T02:56:28.597Z,948.30
2018-03-29T02:57:28.589Z,948.29
2018-03-29T02:58:28.663Z,948.32
2018-03-29T02:59:28.581Z,948.31
2018-03-29T03:00:28.589Z,948.26
2018-03-29T03:01:28.566Z,948.31
2018-03-29T03:02:28.564Z,948.37
2018-03-29T03:03:28.566Z,948.35
2018-03-29T03:04:28.554Z,948.42
2018-03-29T03:05:28.562Z,948.41
2018-03-29T03:06:28.543Z,948.45
2018-03-29T03:07:28.540Z,948.47
2018-03-29T03:08:28.538Z,948.48
2018-03-29T03:09:28.528Z,948.53
2018-03-29T03:10:28.525Z,948.56
2018-03-29T03:11:28.521Z,948.62
2018-03-29T03:12:28.525Z,948.60
2018-03-29T03:13:28.510Z,948.70
2018-03-29T03:14:28.522Z,948.68
2018-03-29T03:15:28.500Z,948.73
2018-03-29T03:16:28.495Z,948.69
2018-03-29T03:17:28.490Z,948.76
2018-03-29T03:18:28.481Z,948.78
2018-03-29T03:19:28.478Z,948.77
2018-03-29T03:20:28.481Z,948.79
2018-03-29T03:21:28.469Z,948.84
2018-03-29T03:22:28.462Z,948.85
2018-03-29T03:23:28.458Z,948.93
2018-03-29T03:24:28.452Z,948.91
2018-03-29T03:25:28.448Z,948.93
2018-03-29T03:26:28.442Z,948.96
2018-03-29T03:27:28.434Z,948.96
2018-03-29T03:28:28.431Z,949.04
2018-03-29T03:29:28.433Z,948.99
2018-03-29T03:30:28.425Z,949.05
2018-03-29T03:31:28.418Z,949.03
2018-03-29T03:32:28.456Z,948.97
2018-03-29T03:33:28.411Z,949.03
2018-03-29T03:34:28.399Z,949.04
2018-03-29T03:35:28.401Z,949.05
2018-03-29T03:36:28.392Z,949.08
2018-03-29T03:37:28.382Z,949.03
2018-03-29T03:38:28.376Z,949.04
2018-03-29T03:39:28.432Z,949.04
2018-03-29T03:40:28.374Z,949.06
2018-03-29T03:41:28.454Z,949.11
2018-03-29T03:42:28.356Z,949.07
2018-03-29T03:43:28.360Z,949.13
2018-03-29T03:44:28.356Z,949.15
2018-03-29T03:45:28.344Z,949.10
2018-03-29T03:46:28.336Z,949.10
2018-03-29T03:47:28.331Z,949.10
2018-03-29T03:48:28.329Z,949.15
2018-03-29T03:49:28.320Z,949.15
2018-03-29T03:50:28.315Z,949.16
2018-03-29T03:51:28.309Z,949.09
2018-03-29T03:52:28.310Z,949.13
2018-03-29T03:53:28.975Z,949.18
2018-03-29T03:54:28.294Z,949.12
2018-03-29T03:55:28.293Z,949.19
2018-03-29T03:56:28.288Z,949.25
2018-03-29T03:57:28.282Z,949.31
2018-03-29T03:58:28.274Z,949.28
2018-03-29T03:59:28.268Z,949.29
2018-03-29T04:00:28.267Z,949.34
2018-03-29T04:01:28.263Z,949.36
2018-03-29T04:02:28.253Z,949.38
2018-03-29T04:03:28.250Z,949.36
2018-03-29T04:04:28.247Z,949.38
2018-03-29T04:05:28.238Z,949.44
2018-03-29T04:06:28.232Z,949.45
2018-03-29T04:07:28.238Z,949.42
2018-03-29T04:08:28.239Z,949.52
2018-03-29T04:09:28.218Z,949.53
2018-03-29T04:10:28.233Z,949.48
2018-03-29T04:11:28.206Z,949.43
2018-03-29T04:12:28.202Z,949.55
2018-03-29T04:13:28.196Z,949.59
2018-03-29T04:14:28.196Z,949.56
2018-03-29T04:15:28.188Z,949.55
2018-03-29T04:16:28.193Z,949.57
2018-03-29T04:17:28.174Z,949.60
2018-03-29T04:18:28.169Z,949.62
2018-03-29T04:19:28.170Z,949.62
2018-03-29T04:20:28.162Z,949.68
2018-03-29T04:21:28.151Z,949.66
2018-03-29T04:22:28.151Z,949.69
2018-03-29T04:23:28.143Z,949.73
2018-03-29T04:24:28.137Z,949.73
2018-03-29T04:25:28.135Z,949.68
2018-03-29T04:26:28.126Z,949.83
2018-03-29T04:27:28.126Z,949.78
2018-03-29T04:28:28.120Z,949.72
2018-03-29T04:29:28.116Z,949.78
2018-03-29T04:30:28.104Z,949.77
2018-03-29T04:31:28.101Z,949.78
2018-03-29T04:32:28.097Z,949.79
2018-03-29T04:33:28.089Z,949.79
2018-03-29T04:34:28.085Z,949.80
2018-03-29T04:35:28.081Z,949.75
2018-03-29T04:36:28.075Z,949.74
2018-03-29T04:37:28.070Z,949.84
2018-03-29T04:38:28.071Z,949.95
2018-03-29T04:39:28.063Z,949.90
2018-03-29T04:40:28.054Z,949.90
2018-03-29T04:41:28.054Z,949.92
2018-03-29T04:42:28.039Z,949.90
2018-03-29T04:43:28.053Z,949.95
2018-03-29T04:44:28.036Z,949.96
2018-03-29T04:45:28.027Z,950.00
2018-03-29T04:46:28.024Z,949.99
2018-03-29T04:47:28.017Z,949.96
2018-03-29T04:48:28.011Z,949.91
2018-03-29T04:49:28.011Z,949.96
2018-03-29T04:50:28.001Z,950.02
2018-03-29T04:51:27.996Z,950.03
2018-03-29T04:52:27.987Z,950.05
2018-03-29T04:53:27.982Z,950.04
2018-03-29T04:54:40.174Z,950.04
2018-03-29T04:55:40.169Z,950.09
2018-03-29T04:57:34.507Z,950.12
2018-03-29T04:58:34.474Z,950.13
2018-03-29T05:00:28.855Z,950.14
2018-03-29T05:01:28.868Z,950.13
2018-03-29T05:03:23.188Z,950.16
2018-03-29T05:04:23.206Z,950.17
2018-03-29T05:06:17.667Z,950.17
2018-03-29T05:07:17.725Z,950.22
2018-03-29T05:09:11.945Z,950.24
2018-03-29T05:10:12.028Z,950.23
2018-03-29T05:12:06.297Z,950.26
2018-03-29T05:13:06.503Z,950.23
2018-03-29T05:15:00.721Z,950.27
2018-03-29T05:16:00.719Z,950.31
2018-03-29T05:17:55.024Z,950.31
2018-03-29T05:18:55.015Z,950.30
2018-03-29T05:20:49.478Z,950.37
2018-03-29T05:21:49.456Z,950.31
2018-03-29T05:23:43.744Z,950.39
2018-03-29T05:24:43.707Z,950.31
2018-03-29T05:26:38.247Z,950.31
2018-03-29T05:27:38.298Z,950.35
2018-03-29T05:29:32.615Z,950.40
2018-03-29T05:30:32.624Z,950.41
2018-03-29T05:32:27.000Z,950.45
2018-03-29T05:33:27.120Z,950.43
2018-03-29T05:35:21.318Z,950.44
2018-03-29T05:36:21.351Z,950.52
2018-03-29T05:38:16.156Z,950.58
2018-03-29T05:39:16.059Z,950.56
2018-03-29T05:40:16.075Z,950.59
2018-03-29T05:41:15.985Z,950.63
2018-03-29T05:42:15.982Z,950.64
2018-03-29T05:43:15.975Z,950.69
2018-03-29T05:44:15.970Z,950.70
2018-03-29T05:45:15.975Z,950.69
2018-03-29T05:46:15.962Z,950.69
2018-03-29T05:47:15.958Z,950.65
2018-03-29T05:48:15.946Z,950.69
2018-03-29T05:49:15.943Z,950.63
2018-03-29T05:50:15.959Z,950.69
2018-03-29T05:51:15.932Z,950.75
2018-03-29T05:52:15.924Z,950.71
2018-03-29T05:53:15.917Z,950.74
2018-03-29T05:54:16.678Z,950.71
2018-03-29T05:55:15.907Z,950.75
2018-03-29T05:56:15.905Z,950.74
2018-03-29T05:57:15.896Z,950.78
2018-03-29T05:58:15.896Z,950.76
2018-03-29T05:59:15.887Z,950.81
2018-03-29T06:00:15.886Z,950.84
2018-03-29T06:01:15.874Z,950.90
2018-03-29T06:02:15.871Z,950.87
2018-03-29T06:03:15.949Z,950.91
2018-03-29T06:04:15.867Z,950.93
2018-03-29T06:05:15.855Z,950.90
2018-03-29T06:06:15.893Z,950.93
2018-03-29T06:07:16.673Z,950.97
2018-03-29T06:08:15.840Z,951.01
2018-03-29T06:09:15.831Z,950.99
2018-03-29T06:10:15.827Z,950.97
2018-03-29T06:11:16.700Z,950.99
2018-03-29T06:12:15.816Z,951.02
2018-03-29T06:13:16.759Z,951.03
2018-03-29T06:14:15.843Z,951.02
2018-03-29T06:15:15.808Z,951.04
2018-03-29T06:16:15.800Z,951.02
2018-03-29T06:17:15.796Z,950.99
2018-03-29T06:18:15.803Z,951.03
2018-03-29T06:19:15.863Z,951.02
2018-03-29T06:20:15.775Z,951.04
2018-03-29T06:21:15.770Z,951.02
2018-03-29T06:22:15.766Z,951.04
2018-03-29T06:23:17.848Z,951.08
2018-03-29T06:24:17.726Z,951.08
2018-03-29T06:25:16.830Z,951.16
2018-03-29T06:26:15.764Z,951.08
2018-03-29T06:27:15.816Z,951.17
2018-03-29T06:28:15.805Z,951.09
2018-03-29T06:29:15.732Z,951.13
2018-03-29T06:30:15.728Z,951.15
2018-03-29T06:31:15.721Z,951.12
2018-03-29T06:32:15.718Z,951.19
2018-03-29T06:33:15.714Z,951.14
2018-03-29T06:34:15.703Z,951.15
2018-03-29T06:35:15.728Z,951.21
2018-03-29T06:36:15.698Z,951.21
2018-03-29T06:37:17.860Z,951.16
2018-03-29T06:38:15.687Z,951.22
2018-03-29T06:39:15.684Z,951.25
2018-03-29T06:40:15.690Z,951.23
2018-03-29T06:41:15.673Z,951.28
2018-03-29T06:42:15.661Z,951.36
2018-03-29T06:43:15.664Z,951.32
2018-03-29T06:44:15.649Z,951.33
2018-03-29T06:45:15.645Z,951.35
2018-03-29T06:46:15.644Z,951.33
2018-03-29T06:47:15.643Z,951.35
2018-03-29T06:48:15.628Z,951.36
2018-03-29T06:49:16.241Z,951.35
2018-03-29T06:50:15.634Z,951.37
2018-03-29T06:51:15.648Z,951.35
2018-03-29T06:52:15.618Z,951.33
2018-03-29T06:53:17.177Z,951.38
2018-03-29T06:54:15.604Z,951.36
2018-03-29T06:55:15.596Z,951.44
2018-03-29T06:56:15.591Z,951.33
2018-03-29T06:57:15.585Z,951.39
2018-03-29T06:58:15.600Z,951.46
2018-03-29T06:59:15.583Z,951.48
2018-03-29T07:00:15.578Z,951.41
2018-03-29T07:01:15.588Z,951.55
2018-03-29T07:02:15.565Z,951.51
2018-03-29T07:03:15.557Z,951.55
2018-03-29T07:04:15.745Z,951.59
2018-03-29T07:05:15.548Z,951.56
2018-03-29T07:06:15.550Z,951.71
2018-03-29T07:07:15.539Z,951.67
2018-03-29T07:08:15.535Z,951.74
2018-03-29T07:09:15.538Z,951.72
2018-03-29T07:10:15.547Z,951.72
2018-03-29T07:11:15.550Z,951.75
2018-03-29T07:12:15.528Z,951.78
2018-03-29T07:13:15.520Z,951.72
2018-03-29T07:14:15.555Z,951.74
2018-03-29T07:15:15.513Z,951.76
2018-03-29T07:16:15.516Z,951.77
2018-03-29T07:17:16.259Z,951.74
2018-03-29T07:18:15.502Z,951.75
2018-03-29T07:19:15.527Z,951.79
2018-03-29T07:20:15.538Z,951.88
2018-03-29T07:21:15.488Z,951.76
2018-03-29T07:22:15.487Z,951.89
2018-03-29T07:23:15.522Z,951.83
2018-03-29T07:24:15.488Z,951.86
2018-03-29T07:25:15.490Z,951.87
2018-03-29T07:26:15.483Z,951.85
2018-03-29T07:27:15.468Z,951.88
2018-03-29T07:28:15.579Z,952.08
2018-03-29T07:29:15.511Z,951.87
2018-03-29T07:30:15.461Z,951.84
2018-03-29T07:31:15.455Z,951.87
2018-03-29T07:32:15.497Z,951.89
2018-03-29T07:33:15.462Z,951.86
2018-03-29T07:34:15.526Z,951.92
2018-03-29T07:35:15.445Z,951.89
2018-03-29T07:36:15.535Z,951.95
2018-03-29T07:37:15.444Z,951.91
2018-03-29T07:38:15.459Z,951.95
2018-03-29T07:39:15.518Z,951.94
2018-03-29T07:40:15.450Z,951.95
2018-03-29T07:41:15.496Z,951.90
2018-03-29T07:42:15.508Z,951.92
2018-03-29T07:43:15.624Z,951.87
2018-03-29T07:44:15.564Z,951.86
2018-03-29T07:45:15.425Z,951.92
2018-03-29T07:46:15.513Z,952.06
2018-03-29T07:47:15.420Z,952.02
2018-03-29T07:48:15.412Z,952.01
2018-03-29T07:49:15.575Z,952.01
2018-03-29T07:50:15.478Z,951.95
2018-03-29T07:51:15.479Z,951.90
2018-03-29T07:52:15.461Z,951.93
2018-03-29T07:53:15.456Z,952.00
2018-03-29T07:54:15.454Z,951.95
2018-03-29T07:55:15.424Z,951.97
2018-03-29T07:56:15.430Z,951.95
2018-03-29T07:57:15.409Z,951.95
2018-03-29T07:58:15.439Z,951.94
2018-03-29T07:59:15.383Z,951.98
2018-03-29T08:00:15.383Z,951.99
2018-03-29T08:01:15.507Z,951.98
2018-03-29T08:02:21.259Z,951.92
2018-03-29T08:03:15.372Z,952.01
2018-03-29T08:04:15.375Z,951.93
2018-03-29T08:05:15.385Z,951.95
2018-03-29T08:06:15.425Z,951.92
2018-03-29T08:07:15.365Z,951.91
2018-03-29T08:08:15.359Z,952.01
2018-03-29T08:09:15.406Z,951.93
2018-03-29T08:10:15.352Z,951.92
2018-03-29T08:11:15.355Z,951.97
2018-03-29T08:12:15.353Z,951.97
2018-03-29T08:13:15.350Z,951.93
2018-03-29T08:14:15.346Z,951.93
2018-03-29T08:15:15.346Z,951.90
2018-03-29T08:16:15.344Z,951.94
2018-03-29T08:17:15.341Z,952.02
2018-03-29T08:18:15.470Z,951.96
2018-03-29T08:19:15.358Z,951.96
2018-03-29T08:20:15.334Z,951.97
2018-03-29T08:21:15.331Z,952.02
2018-03-29T08:22:15.450Z,952.04
2018-03-29T08:23:15.408Z,952.03
2018-03-29T08:24:16.191Z,952.02
2018-03-29T08:25:15.310Z,952.04
2018-03-29T08:26:15.310Z,952.05
2018-03-29T08:27:15.307Z,952.07
2018-03-29T08:28:15.306Z,952.02
2018-03-29T08:29:15.301Z,952.01
2018-03-29T08:30:15.304Z,952.00
2018-03-29T08:31:15.298Z,952.10
2018-03-29T08:32:15.293Z,952.06
2018-03-29T08:33:15.290Z,952.11
2018-03-29T08:34:15.287Z,952.11
2018-03-29T08:35:15.289Z,952.14
2018-03-29T08:36:15.276Z,952.12
2018-03-29T08:37:15.286Z,952.18
2018-03-29T08:38:15.269Z,952.16
2018-03-29T08:39:15.270Z,952.18
2018-03-29T08:40:15.267Z,952.12
2018-03-29T08:41:15.264Z,952.15
2018-03-29T08:42:15.260Z,952.14
2018-03-29T08:43:15.257Z,952.15
2018-03-29T08:44:15.251Z,952.17
2018-03-29T08:45:15.252Z,952.14
2018-03-29T08:46:15.322Z,952.16
2018-03-29T08:47:15.245Z,952.19
2018-03-29T08:48:15.239Z,952.23
2018-03-29T08:49:15.240Z,952.15
2018-03-29T08:50:15.236Z,952.27
2018-03-29T08:51:15.229Z,952.24
2018-03-29T08:52:15.229Z,952.23
2018-03-29T08:53:15.230Z,952.22
2018-03-29T08:54:15.220Z,952.25
2018-03-29T08:55:15.222Z,952.28
2018-03-29T08:56:15.229Z,952.25
2018-03-29T08:57:15.207Z,952.28
2018-03-29T08:58:15.204Z,952.31
2018-03-29T08:59:15.201Z,952.35
2018-03-29T09:00:15.200Z,952.37
2018-03-29T09:01:15.197Z,952.38
2018-03-29T09:02:15.206Z,952.36
2018-03-29T09:03:15.202Z,952.29
2018-03-29T09:04:15.196Z,952.25
2018-03-29T09:05:15.176Z,952.32
2018-03-29T09:06:15.181Z,952.28
2018-03-29T09:07:15.176Z,952.41
2018-03-29T09:08:15.172Z,952.31
2018-03-29T09:09:15.168Z,952.43
2018-03-29T09:10:15.695Z,952.37
2018-03-29T09:11:15.156Z,952.42
2018-03-29T09:12:15.158Z,952.40
2018-03-29T09:13:15.149Z,952.43
2018-03-29T09:14:15.164Z,952.41
2018-03-29T09:15:15.144Z,952.58
2018-03-29T09:16:15.155Z,952.64
2018-03-29T09:17:15.135Z,952.67
2018-03-29T09:18:15.145Z,952.73
2018-03-29T09:19:15.144Z,952.76
2018-03-29T09:20:15.131Z,952.82
2018-03-29T09:21:15.134Z,952.79
2018-03-29T09:22:15.132Z,952.83
2018-03-29T09:23:15.136Z,952.69
2018-03-29T09:24:15.136Z,952.63
2018-03-29T09:25:15.135Z,952.56
2018-03-29T09:26:15.137Z,952.53
2018-03-29T09:27:15.169Z,952.84
2018-03-29T09:28:15.141Z,952.66
2018-03-29T09:29:15.141Z,952.72
2018-03-29T09:30:15.143Z,952.57
2018-03-29T09:31:15.145Z,952.54
2018-03-29T09:32:15.148Z,952.46
2018-03-29T09:33:15.148Z,952.40
2018-03-29T09:34:15.151Z,952.52
2018-03-29T09:35:15.152Z,952.46
2018-03-29T09:36:15.152Z,952.50
2018-03-29T09:37:15.154Z,952.49
2018-03-29T09:38:15.153Z,952.43
2018-03-29T09:39:15.165Z,952.40
2018-03-29T09:40:15.158Z,952.40
2018-03-29T09:41:15.175Z,952.41
2018-03-29T09:42:15.163Z,952.45
2018-03-29T09:43:15.162Z,952.50
2018-03-29T09:44:15.153Z,952.46
2018-03-29T09:45:15.153Z,952.49
2018-03-29T09:46:15.155Z,952.46
2018-03-29T09:47:15.152Z,952.50
2018-03-29T09:48:15.153Z,952.55
2018-03-29T09:49:15.150Z,952.56
2018-03-29T09:50:15.152Z,952.56
2018-03-29T09:51:15.145Z,952.52
2018-03-29T09:52:15.146Z,952.57
2018-03-29T09:53:15.143Z,952.62
2018-03-29T09:54:15.140Z,952.59
2018-03-29T09:55:15.137Z,952.62
2018-03-29T09:56:15.132Z,952.56
2018-03-29T09:57:15.161Z,952.58
2018-03-29T09:58:15.141Z,952.62
2018-03-29T09:59:15.142Z,952.60
2018-03-29T10:00:15.139Z,952.60
2018-03-29T10:01:15.124Z,952.64
2018-03-29T10:02:15.211Z,952.67
2018-03-29T10:03:15.120Z,952.67
2018-03-29T10:04:15.115Z,952.67
2018-03-29T10:05:15.119Z,952.69
2018-03-29T10:06:15.112Z,952.69
2018-03-29T10:07:15.145Z,952.71
2018-03-29T10:08:15.106Z,952.71
2018-03-29T10:09:15.104Z,952.68
2018-03-29T10:10:15.101Z,952.70
2018-03-29T10:11:15.102Z,952.67
2018-03-29T10:12:15.146Z,952.65
2018-03-29T10:13:15.091Z,952.65
2018-03-29T10:14:15.093Z,952.60
2018-03-29T10:15:15.086Z,952.64
2018-03-29T10:16:15.086Z,952.63
2018-03-29T10:17:15.083Z,952.62
2018-03-29T10:18:15.077Z,952.64
2018-03-29T10:19:15.075Z,952.73
2018-03-29T10:20:15.077Z,952.66
2018-03-29T10:21:15.068Z,952.67
2018-03-29T10:22:15.062Z,952.65
2018-03-29T10:23:15.074Z,952.63
2018-03-29T10:24:15.059Z,952.65
2018-03-29T10:25:15.055Z,952.69
2018-03-29T10:26:15.053Z,952.67
2018-03-29T10:27:15.052Z,952.67
2018-03-29T10:28:15.047Z,952.66
2018-03-29T10:29:15.048Z,952.69
2018-03-29T10:30:15.099Z,952.68
2018-03-29T10:31:15.039Z,952.73
2018-03-29T10:32:15.037Z,952.67
2018-03-29T10:33:15.107Z,952.72
2018-03-29T10:34:15.028Z,952.71
2018-03-29T10:35:15.025Z,952.70
2018-03-29T10:36:15.035Z,952.67
2018-03-29T10:37:15.023Z,952.62
2018-03-29T10:38:15.036Z,952.67
2018-03-29T10:39:15.035Z,952.61
2018-03-29T10:40:15.009Z,952.62
2018-03-29T10:41:15.010Z,952.55
2018-03-29T10:42:15.003Z,952.62
2018-03-29T10:43:15.000Z,952.62
2018-03-29T10:44:14.996Z,952.66
2018-03-29T10:45:14.999Z,952.61
2018-03-29T10:46:15.062Z,952.57
2018-03-29T10:47:14.985Z,952.61
2018-03-29T10:48:14.982Z,952.67
2018-03-29T10:49:14.979Z,952.69
2018-03-29T10:50:14.978Z,952.67
2018-03-29T10:51:14.977Z,952.69
2018-03-29T10:52:14.970Z,952.66
2018-03-29T10:53:14.983Z,952.66
2018-03-29T10:54:14.968Z,952.70
2018-03-29T10:55:14.977Z,952.63
2018-03-29T10:56:14.958Z,952.70
2018-03-29T10:57:14.955Z,952.66
2018-03-29T10:58:14.951Z,952.70
2018-03-29T10:59:14.949Z,952.64
2018-03-29T11:00:14.952Z,952.64
2018-03-29T11:01:14.942Z,952.67
2018-03-29T11:02:14.959Z,952.66
2018-03-29T11:03:14.974Z,952.62
2018-03-29T11:04:14.933Z,952.58
2018-03-29T11:05:14.929Z,952.61
2018-03-29T11:06:14.933Z,952.57
2018-03-29T11:07:14.936Z,952.63
2018-03-29T11:08:14.945Z,952.67
2018-03-29T11:09:14.922Z,952.62
2018-03-29T11:10:14.919Z,952.64
2018-03-29T11:11:14.924Z,952.71
2018-03-29T11:12:14.918Z,952.66
2018-03-29T11:13:14.904Z,952.67
2018-03-29T11:14:14.901Z,952.65
2018-03-29T11:15:14.900Z,952.62
2018-03-29T11:16:14.896Z,952.60
2018-03-29T11:17:14.900Z,952.65
2018-03-29T11:18:14.897Z,952.63
2018-03-29T11:19:14.889Z,952.64
2018-03-29T11:20:14.885Z,952.58
2018-03-29T11:21:14.886Z,952.60
2018-03-29T11:22:14.884Z,952.56
2018-03-29T11:23:14.882Z,952.50
2018-03-29T11:24:14.877Z,952.51
2018-03-29T11:25:14.882Z,952.47
2018-03-29T11:26:14.875Z,952.43
2018-03-29T11:27:14.873Z,952.49
2018-03-29T11:28:14.879Z,952.51
2018-03-29T11:29:14.870Z,952.48
2018-03-29T11:30:14.869Z,952.48
2018-03-29T11:31:14.869Z,952.52
2018-03-29T11:32:14.874Z,952.60
2018-03-29T11:33:14.864Z,952.52
2018-03-29T11:34:14.863Z,952.51
2018-03-29T11:35:14.863Z,952.52
2018-03-29T11:36:14.860Z,952.54
2018-03-29T11:37:14.864Z,952.50
2018-03-29T11:38:14.871Z,952.45
2018-03-29T11:39:14.863Z,952.49
2018-03-29T11:40:14.856Z,952.52
2018-03-29T11:41:14.877Z,952.48
2018-03-29T11:42:14.864Z,952.54
2018-03-29T11:43:14.858Z,952.47
2018-03-29T11:44:14.854Z,952.51
2018-03-29T11:45:14.853Z,952.51
2018-03-29T11:46:14.863Z,952.47
2018-03-29T11:47:14.852Z,952.47
2018-03-29T11:48:14.853Z,952.48
2018-03-29T11:49:14.851Z,952.45
2018-03-29T11:50:14.855Z,952.48
2018-03-29T11:51:14.845Z,952.48
2018-03-29T11:52:14.854Z,952.46
2018-03-29T11:53:14.851Z,952.50
2018-03-29T11:54:14.841Z,952.53
2018-03-29T11:55:14.841Z,952.60
2018-03-29T11:56:14.838Z,952.59
2018-03-29T11:57:14.841Z,952.59
2018-03-29T11:58:14.838Z,952.60
2018-03-29T11:59:14.833Z,952.57
2018-03-29T12:00:14.832Z,952.59
2018-03-29T12:01:14.828Z,952.58
2018-03-29T12:02:14.826Z,952.56
2018-03-29T12:03:14.826Z,952.57
2018-03-29T12:04:14.831Z,952.49
2018-03-29T12:05:14.818Z,952.48
2018-03-29T12:06:14.827Z,952.54
2018-03-29T12:07:14.868Z,952.50
2018-03-29T12:08:14.814Z,952.56
2018-03-29T12:09:14.813Z,952.49
2018-03-29T12:10:14.813Z,952.48
2018-03-29T12:11:14.820Z,952.48
2018-03-29T12:12:14.808Z,952.54
2018-03-29T12:13:14.799Z,952.59
2018-03-29T12:14:14.800Z,952.57
2018-03-29T12:15:14.848Z,952.57
2018-03-29T12:16:14.793Z,952.51
2018-03-29T12:17:14.806Z,952.51
2018-03-29T12:18:14.792Z,952.53
2018-03-29T12:19:14.788Z,952.51
2018-03-29T12:20:14.786Z,952.55
2018-03-29T12:21:14.783Z,952.53
2018-03-29T12:22:14.779Z,952.54
2018-03-29T12:23:14.776Z,952.54
2018-03-29T12:24:14.774Z,952.57
2018-03-29T12:25:14.775Z,952.56
2018-03-29T12:26:14.774Z,952.58
2018-03-29T12:27:14.809Z,952.62
2018-03-29T12:28:14.763Z,952.56
2018-03-29T12:29:14.765Z,952.54
2018-03-29T12:30:14.760Z,952.55
2018-03-29T12:31:14.809Z,952.59
2018-03-29T12:32:14.754Z,952.59
2018-03-29T12:33:14.752Z,952.62
2018-03-29T12:34:14.812Z,952.58
2018-03-29T12:35:14.748Z,952.62
2018-03-29T12:36:14.743Z,952.57
2018-03-29T12:37:14.738Z,952.64
2018-03-29T12:38:14.734Z,952.60
2018-03-29T12:39:14.749Z,952.57
2018-03-29T12:40:14.735Z,952.59
2018-03-29T12:41:14.727Z,952.61
2018-03-29T12:42:14.723Z,952.61